createdAt,value
2023-11-12T00:04:58.003Z,2.63
2023-11-12T00:10:00.056Z,2.85
2023-11-12T00:15:02.247Z,2.45
2023-11-12T00:20:07.421Z,3.15
2023-11-12T00:25:14.465Z,2.92
2023-11-12T00:30:17.129Z,3.72
2023-11-12T00:35:19.846Z,3.10
2023-11-12T00:40:22.626Z,4.22
2023-11-12T00:45:24.717Z,4.10
2023-11-12T00:50:26.806Z,3.70
2023-11-12T00:55:28.866Z,3.47
2023-11-12T01:00:31.397Z,3.00
2023-11-12T01:05:33.718Z,3.47
2023-11-12T01:10:35.809Z,3.88
2023-11-12T01:15:37.912Z,3.75
2023-11-12T01:20:40.111Z,3.08
2023-11-12T01:25:45.025Z,3.20
2023-11-12T01:30:47.055Z,5.10
2023-11-12T01:35:49.118Z,4.38
2023-11-12T01:40:51.206Z,3.80
2023-11-12T01:45:53.278Z,4.35
2023-11-12T01:50:55.546Z,3.47
2023-11-12T01:55:58.280Z,3.63
2023-11-12T02:01:01.567Z,2.63
2023-11-12T02:06:04.867Z,3.38
2023-11-12T02:11:10.129Z,3.47
2023-11-12T02:16:12.363Z,3.30
2023-11-12T02:21:14.547Z,4.22
2023-11-12T02:26:16.865Z,3.40
2023-11-12T02:31:19.049Z,2.85
2023-11-12T02:36:26.508Z,2.92
2023-11-12T02:41:29.065Z,4.47
2023-11-12T02:46:31.156Z,4.22
2023-11-12T02:51:33.234Z,5.13
2023-11-12T02:56:35.854Z,5.43
2023-11-12T03:01:38.038Z,4.60
2023-11-12T03:06:40.115Z,4.10
2023-11-12T03:11:42.274Z,3.90
2023-11-12T03:16:44.911Z,3.85
2023-11-12T03:21:54.224Z,3.47
2023-11-12T03:26:56.356Z,4.72
2023-11-12T03:31:59.518Z,2.70
2023-11-12T03:37:01.603Z,4.50
2023-11-12T03:42:03.730Z,3.38
2023-11-12T03:47:06.088Z,2.83
2023-11-12T03:52:09.744Z,3.28
2023-11-12T03:57:11.834Z,2.55
2023-11-12T04:02:14.023Z,3.63
2023-11-12T04:07:17.190Z,2.65
2023-11-12T04:12:19.372Z,2.67
2023-11-12T04:17:21.838Z,3.55
2023-11-12T04:22:24.480Z,2.63
2023-11-12T04:27:26.555Z,3.50
2023-11-12T04:32:28.758Z,3.17
2023-11-12T04:37:30.773Z,2.90
2023-11-12T04:42:33.426Z,3.42
2023-11-12T04:47:35.529Z,3.63
2023-11-12T04:52:37.620Z,3.33
2023-11-12T04:57:39.939Z,3.83
2023-11-12T05:02:42.081Z,3.45
2023-11-12T05:07:44.421Z,3.17
2023-11-12T05:12:46.972Z,3.38
2023-11-12T05:17:49.993Z,3.60
2023-11-12T05:22:53.761Z,3.35
2023-11-12T05:27:56.178Z,4.60
2023-11-12T05:32:58.703Z,3.25
2023-11-12T05:38:00.870Z,3.63
2023-11-12T05:43:03.081Z,3.08
2023-11-12T05:48:05.391Z,2.65
2023-11-12T05:53:07.440Z,3.20
2023-11-12T05:58:09.842Z,3.40
2023-11-12T06:03:11.943Z,2.60
2023-11-12T06:08:14.108Z,3.25
2023-11-12T06:13:16.799Z,2.25
2023-11-12T06:18:19.142Z,2.85
2023-11-12T06:23:21.275Z,3.00
2023-11-12T06:28:24.077Z,2.35
2023-11-12T06:33:26.351Z,2.65
2023-11-12T06:38:28.481Z,2.33
2023-11-12T06:43:30.465Z,2.83
2023-11-12T06:48:33.096Z,2.90
2023-11-12T06:53:35.226Z,2.22
2023-11-12T06:58:37.274Z,2.65
2023-11-12T07:03:39.834Z,3.85
2023-11-12T07:08:42.313Z,3.38
2023-11-12T07:13:44.384Z,3.13
2023-11-12T07:18:53.895Z,3.40
2023-11-12T07:23:57.744Z,3.97
2023-11-12T07:28:59.982Z,2.63
2023-11-12T07:34:02.048Z,3.17
2023-11-12T07:39:04.702Z,2.90
2023-11-12T07:44:06.881Z,2.95
2023-11-12T07:49:09.355Z,4.30
2023-11-12T07:54:11.352Z,4.80
2023-11-12T07:59:13.426Z,5.25
2023-11-12T08:04:15.554Z,4.82
2023-11-12T08:09:17.768Z,4.28
2023-11-12T08:14:19.832Z,4.85
2023-11-12T08:19:22.337Z,3.15
2023-11-12T08:24:24.397Z,2.97
2023-11-12T08:29:26.421Z,3.97
2023-11-12T08:34:28.503Z,3.90
2023-11-12T08:39:30.572Z,2.83
2023-11-12T08:44:32.590Z,4.45
2023-11-12T08:49:34.591Z,4.57
2023-11-12T08:54:36.654Z,3.40
2023-11-12T08:59:38.723Z,4.20
2023-11-12T09:04:40.769Z,3.40
2023-11-12T09:09:42.965Z,4.05
2023-11-12T09:14:44.985Z,3.45
2023-11-12T09:19:46.999Z,4.05
2023-11-12T09:25:00.791Z,3.45
2023-11-12T09:30:12.022Z,4.18
2023-11-12T09:35:15.892Z,4.22
2023-11-12T09:40:18.191Z,4.43
2023-11-12T09:45:20.933Z,4.03
2023-11-12T09:50:24.274Z,3.70
2023-11-12T09:55:26.491Z,4.50
2023-11-12T10:00:28.892Z,4.13
2023-11-12T10:05:33.362Z,3.85
2023-11-12T10:10:35.916Z,4.00
2023-11-12T10:15:38.399Z,3.55
2023-11-12T10:20:41.636Z,3.40
2023-11-12T10:25:48.659Z,3.03
2023-11-12T10:30:55.132Z,2.08
2023-11-12T10:35:57.740Z,2.78
2023-11-12T10:41:03.247Z,2.40
2023-11-12T10:46:08.176Z,2.72
2023-11-12T10:51:13.341Z,2.77
2023-11-12T10:56:17.444Z,2.55
2023-11-12T11:01:19.900Z,2.50
2023-11-12T11:06:23.974Z,2.20
2023-11-12T11:11:26.516Z,2.45
2023-11-12T11:16:51.625Z,2.20
2023-11-12T11:22:33.767Z,2.00
2023-11-12T11:27:36.054Z,1.60
2023-11-12T11:32:38.652Z,1.25
2023-11-12T11:38:13.602Z,2.08
2023-11-12T11:43:24.981Z,2.00
2023-11-12T11:48:27.238Z,2.97
2023-11-12T11:53:30.063Z,3.38
2023-11-12T11:58:52.654Z,4.05
2023-11-12T12:04:07.487Z,5.20
2023-11-12T12:09:14.482Z,4.55
2023-11-12T12:14:16.876Z,4.53
2023-11-12T12:19:22.330Z,4.38
2023-11-12T12:24:24.694Z,4.97
2023-11-12T12:29:26.997Z,4.80
2023-11-12T12:34:40.324Z,4.88
2023-11-12T12:40:05.409Z,4.53
2023-11-12T12:45:17.970Z,4.67
2023-11-12T12:50:31.324Z,3.78
2023-11-12T12:55:33.405Z,3.58
2023-11-12T13:00:37.132Z,3.15
2023-11-12T13:05:39.715Z,3.10
2023-11-12T13:10:41.698Z,2.50
2023-11-12T13:15:44.258Z,1.88
2023-11-12T13:20:46.893Z,2.00
2023-11-12T13:25:51.088Z,1.73
2023-11-12T13:30:54.554Z,1.23
2023-11-12T13:36:01.190Z,1.67
2023-11-12T13:41:03.438Z,1.27
2023-11-12T13:46:08.188Z,1.77
2023-11-12T13:51:11.017Z,2.00
2023-11-12T13:56:13.820Z,1.70
2023-11-12T14:01:20.971Z,2.08
2023-11-12T14:06:23.151Z,2.00
2023-11-12T14:11:25.140Z,1.92
2023-11-12T14:16:27.655Z,2.28
2023-11-12T14:21:30.535Z,1.58
2023-11-12T14:26:33.727Z,2.25
2023-11-12T14:31:36.027Z,2.65
2023-11-12T14:36:38.266Z,2.50
2023-11-12T14:41:41.651Z,2.92
2023-11-12T14:46:44.890Z,2.20
2023-11-12T14:51:47.612Z,2.50
2023-11-12T14:56:53.685Z,2.70
2023-11-12T15:01:55.889Z,2.47
2023-11-12T15:06:57.940Z,2.47
2023-11-12T15:12:01.219Z,2.53
2023-11-12T15:17:03.402Z,2.47
2023-11-12T15:22:05.644Z,2.20
2023-11-12T15:27:07.814Z,2.55
2023-11-12T15:32:09.824Z,2.40
2023-11-12T15:37:11.997Z,2.30
2023-11-12T15:42:15.379Z,2.17
2023-11-12T15:47:20.455Z,2.90
2023-11-12T15:52:25.438Z,2.77
2023-11-12T15:57:27.576Z,2.50
2023-11-12T16:02:30.929Z,2.92
2023-11-12T16:07:33.485Z,2.80
2023-11-12T16:12:35.573Z,3.83
2023-11-12T16:17:38.283Z,3.10
2023-11-12T16:22:40.343Z,3.13
2023-11-12T16:27:42.480Z,2.78
2023-11-12T16:32:44.683Z,4.35
2023-11-12T16:37:49.485Z,3.08
2023-11-12T16:42:52.461Z,3.22
2023-11-12T16:47:55.071Z,3.20
2023-11-12T16:52:57.166Z,3.22
2023-11-12T16:57:59.249Z,3.45
2023-11-12T17:03:01.784Z,3.35
2023-11-12T17:08:05.486Z,3.47
2023-11-12T17:13:08.553Z,4.13
2023-11-12T17:18:10.640Z,3.15
2023-11-12T17:23:13.823Z,3.38
2023-11-12T17:28:15.915Z,3.33
2023-11-12T17:33:17.957Z,3.13
2023-11-12T17:38:19.943Z,3.55
2023-11-12T17:43:23.465Z,3.53
2023-11-12T17:48:25.602Z,3.30
2023-11-12T17:53:27.615Z,3.70
2023-11-12T17:58:29.756Z,3.17
2023-11-12T18:03:34.857Z,3.55
2023-11-12T18:08:39.935Z,3.40
2023-11-12T18:13:42.179Z,3.20
2023-11-12T18:18:44.286Z,2.25
2023-11-12T18:23:46.386Z,2.78
2023-11-12T18:28:48.459Z,2.70
2023-11-12T18:33:51.862Z,2.95
2023-11-12T18:38:53.946Z,2.78
2023-11-12T18:43:55.993Z,2.92
2023-11-12T18:48:58.095Z,3.53
2023-11-12T18:54:00.892Z,4.07
2023-11-12T18:59:07.421Z,4.07
2023-11-12T19:04:10.583Z,3.03
2023-11-12T19:09:16.923Z,3.28
2023-11-12T19:14:18.995Z,3.60
2023-11-12T19:19:21.283Z,3.22
2023-11-12T19:24:23.408Z,3.10
2023-11-12T19:29:26.627Z,4.15
2023-11-12T19:34:30.650Z,3.20
2023-11-12T19:39:34.058Z,3.00
2023-11-12T19:44:36.648Z,2.70
2023-11-12T19:49:38.781Z,2.42
2023-11-12T19:54:42.563Z,2.55
2023-11-12T19:59:44.636Z,2.13
2023-11-12T20:04:46.697Z,2.05
2023-11-12T20:09:49.025Z,1.40
2023-11-12T20:14:51.037Z,1.52
2023-11-12T20:19:53.229Z,1.13
2023-11-12T20:24:55.290Z,1.08
2023-11-12T20:29:59.129Z,0.90
2023-11-12T20:35:01.349Z,0.88
2023-11-12T20:40:09.589Z,0.82
2023-11-12T20:45:18.309Z,1.20
2023-11-12T20:50:21.039Z,0.80
2023-11-12T20:55:23.316Z,0.80
2023-11-12T21:00:27.544Z,1.20
2023-11-12T21:05:30.186Z,1.50
2023-11-12T21:10:35.480Z,1.27
2023-11-12T21:15:38.418Z,1.17
2023-11-12T21:20:40.492Z,1.15
2023-11-12T21:25:42.519Z,0.80
2023-11-12T21:30:46.230Z,1.13
2023-11-12T21:35:54.731Z,0.90
2023-11-12T21:40:57.321Z,0.95
2023-11-12T21:45:59.912Z,1.17
2023-11-12T21:51:02.059Z,1.13
2023-11-12T21:56:05.256Z,1.00
2023-11-12T22:01:11.287Z,1.20
2023-11-12T22:06:13.562Z,1.80
2023-11-12T22:11:15.630Z,2.58
2023-11-12T22:16:17.716Z,2.70
2023-11-12T22:21:19.733Z,3.00
2023-11-12T22:26:21.759Z,2.88
2023-11-12T22:31:24.348Z,2.80
2023-11-12T22:36:26.797Z,2.70
2023-11-12T22:41:28.860Z,2.50
2023-11-12T22:46:32.254Z,2.45
2023-11-12T22:51:35.078Z,2.60
2023-11-12T22:56:38.162Z,2.80
2023-11-12T23:01:40.368Z,2.53
2023-11-12T23:06:42.400Z,2.45
2023-11-12T23:11:44.439Z,2.50
2023-11-12T23:16:48.745Z,2.80
2023-11-12T23:21:52.202Z,2.75
2023-11-12T23:26:54.200Z,2.00
2023-11-12T23:31:56.482Z,2.42
2023-11-12T23:37:00.169Z,2.53
2023-11-12T23:42:02.302Z,2.63
2023-11-12T23:47:04.856Z,2.92
2023-11-12T23:52:07.198Z,2.60
2023-11-12T23:57:12.617Z,2.50
